Time;durP1;ratioP1;P1;durP2;ratioP2;P2;SDS_P1;SDS_P2;PMS_P1;PMS_P2;Temp;Humidity;BMP_temperature;BMP_pressure;BME280_temperature;BME280_humidity;BME280_pressure;Samples;Min_cycle;Max_cycle;Signal;HPM_P1;HPM_P2
2021/03/21 00:01:54;;;;;;;2.97;1.40;;;7.20;99.90;;;;;;5048125;28;20606;-81
2021/03/21 00:04:21;;;;;;;3.40;1.40;;;7.30;99.90;;;;;;5047556;28;20271;-82
2021/03/21 00:06:48;;;;;;;3.43;1.70;;;7.20;99.90;;;;;;5047094;28;20271;-82
2021/03/21 00:09:14;;;;;;;6.20;1.33;;;7.20;99.90;;;;;;5046883;28;20998;-82
2021/03/21 00:11:41;;;;;;;1.90;1.30;;;7.20;99.90;;;;;;5046717;28;20258;-82
2021/03/21 00:14:07;;;;;;;2.40;1.20;;;7.20;99.90;;;;;;5047030;28;20245;-82
2021/03/21 00:16:35;;;;;;;2.40;1.13;;;7.10;99.90;;;;;;5045433;28;20206;-81
2021/03/21 00:19:02;;;;;;;2.17;1.30;;;7.10;99.90;;;;;;5047066;28;20213;-82
2021/03/21 00:21:30;;;;;;;6.30;2.53;;;7.10;99.90;;;;;;5045242;28;20206;-82
2021/03/21 00:23:56;;;;;;;3.57;1.60;;;7.10;99.90;;;;;;5045959;28;20245;-81
2021/03/21 00:26:22;;;;;;;2.23;1.60;;;7.10;99.90;;;;;;5046356;28;20229;-81
2021/03/21 00:28:50;;;;;;;4.17;2.00;;;7.00;99.90;;;;;;5046094;28;20213;-82
2021/03/21 00:31:16;;;;;;;5.03;2.00;;;7.00;99.90;;;;;;5045876;28;20259;-81
2021/03/21 00:33:43;;;;;;;4.70;1.70;;;7.10;99.90;;;;;;5046184;28;20213;-81
2021/03/21 00:36:11;;;;;;;2.47;2.27;;;7.10;99.90;;;;;;5046923;28;20206;-84
2021/03/21 00:38:40;;;;;;;5.00;2.20;;;7.10;99.90;;;;;;5046788;28;20206;-81
2021/03/21 00:41:09;;;;;;;6.93;2.87;;;7.10;99.90;;;;;;5046838;28;20206;-81
2021/03/21 00:43:36;;;;;;;5.33;2.90;;;7.20;99.90;;;;;;5047445;28;20224;-81
2021/03/21 00:46:03;;;;;;;4.27;3.37;;;7.30;99.90;;;;;;5047345;28;20563;-80
2021/03/21 00:48:31;;;;;;;3.93;2.27;;;7.30;99.90;;;;;;5045913;28;20206;-79
2021/03/21 00:50:58;;;;;;;7.43;3.10;;;7.40;99.90;;;;;;5056482;28;20201;-81
2021/03/21 00:53:25;;;;;;;5.07;3.20;;;7.30;99.90;;;;;;5064565;28;20208;-80
2021/03/21 00:55:53;;;;;;;6.57;3.10;;;7.20;99.90;;;;;;5065818;28;20208;-82
2021/03/21 00:58:20;;;;;;;7.13;3.60;;;7.20;99.90;;;;;;5045946;28;20190;-81
2021/03/21 01:00:48;;;;;;;5.77;3.53;;;7.20;99.90;;;;;;5046044;28;20994;-81
2021/03/21 01:03:15;;;;;;;6.20;3.73;;;7.20;99.90;;;;;;5046154;28;20197;-81
2021/03/21 01:05:43;;;;;;;5.90;3.50;;;7.20;99.90;;;;;;5045598;28;20236;-82
2021/03/21 01:08:17;;;;;;;8.57;4.27;;;7.20;99.90;;;;;;5046074;28;20216;-82
2021/03/21 01:10:45;;;;;;;8.27;4.73;;;7.20;99.90;;;;;;5045252;28;20977;-81
2021/03/21 01:13:12;;;;;;;5.20;4.20;;;7.20;99.90;;;;;;5045792;28;20229;-80
2021/03/21 01:15:38;;;;;;;10.00;4.93;;;7.20;99.90;;;;;;5045839;28;20673;-81
2021/03/21 01:18:05;;;;;;;9.33;5.03;;;7.20;99.90;;;;;;5046647;28;20198;-83
2021/03/21 01:20:32;;;;;;;10.93;5.97;;;7.30;99.90;;;;;;5064171;28;20205;-80
2021/03/21 01:22:59;;;;;;;11.00;6.07;;;7.40;99.90;;;;;;5066901;28;20193;-83
2021/03/21 01:25:27;;;;;;;8.80;6.23;;;7.40;99.90;;;;;;5062874;28;20260;-81
2021/03/21 01:27:55;;;;;;;12.73;6.93;;;7.40;99.90;;;;;;5064435;28;20247;-83
2021/03/21 01:30:25;;;;;;;10.80;6.27;;;7.30;99.90;;;;;;5045367;28;20194;-80
2021/03/21 01:32:52;;;;;;;13.67;6.90;;;7.30;99.90;;;;;;5060548;28;20201;-83
2021/03/21 01:35:19;;;;;;;13.17;6.97;;;7.40;99.90;;;;;;5065921;28;20194;-83
2021/03/21 01:37:45;;;;;;;9.13;5.87;;;7.40;99.90;;;;;;5065875;28;20198;-84
2021/03/21 01:40:13;;;;;;;10.83;6.43;;;7.50;99.90;;;;;;5066860;28;20205;-83
2021/03/21 01:42:42;;;;;;;14.00;6.87;;;7.50;99.90;;;;;;5066314;28;20205;-83
2021/03/21 01:45:33;;;;;;;11.30;7.20;;;7.50;99.90;;;;;;5063021;28;20230;-80
2021/03/21 01:48:01;;;;;;;15.37;7.37;;;7.60;99.90;;;;;;5048032;28;20202;-83
2021/03/21 01:50:33;;;;;;;13.53;7.67;;;7.60;99.90;;;;;;5045369;28;20211;-83
2021/03/21 01:53:01;;;;;;;15.70;8.03;;;7.50;99.90;;;;;;5047918;28;20194;-84
2021/03/21 01:55:28;;;;;;;18.97;9.50;;;7.60;99.90;;;;;;5047143;28;20606;-84
2021/03/21 01:57:54;;;;;;;13.53;8.43;;;7.60;99.90;;;;;;5047674;28;20202;-81
2021/03/21 02:00:22;;;;;;;16.43;8.37;;;7.60;99.90;;;;;;5046967;28;20213;-84
2021/03/21 02:02:49;;;;;;;15.33;9.47;;;7.60;99.90;;;;;;5047588;28;20213;-82
2021/03/21 02:05:16;;;;;;;17.87;9.67;;;7.60;99.90;;;;;;5046588;28;20222;-82
2021/03/21 02:07:58;;;;;;;15.07;8.27;;;7.70;99.90;;;;;;5046190;28;20190;-83
2021/03/21 02:10:33;;;;;;;14.30;8.20;;;7.70;99.90;;;;;;5061984;28;20213;-82
2021/03/21 02:13:05;;;;;;;15.07;8.40;;;7.70;99.90;;;;;;5066507;28;20247;-83
2021/03/21 02:15:37;;;;;;;15.33;8.17;;;7.70;99.90;;;;;;5066384;28;20209;-83
2021/03/21 02:18:12;;;;;;;16.27;8.83;;;7.70;99.90;;;;;;5067300;28;20194;-83
2021/03/21 02:21:09;;;;;;;12.33;8.67;;;7.70;99.90;;;;;;5065242;28;20189;-84
2021/03/21 02:23:56;;;;;;;22.07;9.67;;;7.70;99.90;;;;;;5067907;28;20826;-84
2021/03/21 02:26:43;;;;;;;14.07;9.13;;;7.70;99.90;;;;;;5068767;28;20228;-81
2021/03/21 02:29:24;;;;;;;20.33;9.90;;;7.70;99.90;;;;;;5047344;28;20201;-83
2021/03/21 02:31:55;;;;;;;19.60;11.30;;;7.70;99.90;;;;;;5046250;28;20207;-83
2021/03/21 02:34:37;;;;;;;21.73;12.93;;;7.60;99.90;;;;;;5045772;28;20739;-82
2021/03/21 02:37:09;;;;;;;25.83;13.80;;;7.70;99.90;;;;;;5046514;28;20217;-83
2021/03/21 02:39:40;;;;;;;19.90;13.17;;;7.80;99.90;;;;;;5045018;28;20209;-82
2021/03/21 02:42:10;;;;;;;24.70;13.37;;;7.80;99.90;;;;;;5046858;28;20206;-81
2021/03/21 02:44:42;;;;;;;23.80;12.43;;;7.80;99.90;;;;;;5046217;28;20205;-82
2021/03/21 02:47:14;;;;;;;27.40;13.17;;;7.80;99.90;;;;;;5049313;28;20191;-82
2021/03/21 02:49:44;;;;;;;24.57;12.67;;;7.80;99.90;;;;;;5050493;28;20202;-83
2021/03/21 02:52:15;;;;;;;21.37;12.40;;;7.80;99.90;;;;;;5049701;28;20202;-83
2021/03/21 02:54:47;;;;;;;24.37;11.90;;;7.80;99.90;;;;;;5048860;28;20216;-81
2021/03/21 02:57:18;;;;;;;24.67;12.33;;;7.80;99.90;;;;;;5050182;28;20267;-83
2021/03/21 02:59:51;;;;;;;23.10;10.80;;;7.70;99.90;;;;;;5049105;28;20214;-84
2021/03/21 03:02:23;;;;;;;20.57;10.43;;;7.70;99.90;;;;;;5050056;28;20205;-84
2021/03/21 03:04:53;;;;;;;15.60;8.20;;;7.70;99.90;;;;;;5050308;28;20220;-84
2021/03/21 03:07:24;;;;;;;17.20;8.30;;;7.60;99.90;;;;;;5050542;28;20638;-83
2021/03/21 03:09:54;;;;;;;15.37;6.33;;;7.60;99.90;;;;;;5050637;28;20201;-83
2021/03/21 03:12:25;;;;;;;23.17;7.20;;;7.50;99.90;;;;;;5049719;28;20229;-81
2021/03/21 03:14:53;;;;;;;10.47;5.93;;;7.50;99.90;;;;;;5050826;28;20206;-81
2021/03/21 03:17:27;;;;;;;15.17;5.37;;;7.50;99.90;;;;;;5049760;28;20209;-82
2021/03/21 03:19:58;;;;;;;16.50;4.93;;;7.50;99.90;;;;;;5050337;28;20605;-81
2021/03/21 03:22:33;;;;;;;9.27;4.73;;;7.50;99.90;;;;;;5049477;28;20221;-82
2021/03/21 03:25:08;;;;;;;11.57;5.07;;;7.50;99.90;;;;;;5049153;28;20225;-82
2021/03/21 03:27:39;;;;;;;14.47;4.80;;;7.50;99.90;;;;;;5049185;28;20197;-83
2021/03/21 03:30:14;;;;;;;13.50;4.03;;;7.40;99.90;;;;;;5046197;28;20202;-82
2021/03/21 03:32:40;;;;;;;8.23;3.53;;;7.40;99.90;;;;;;5050438;28;20224;-82
2021/03/21 03:35:11;;;;;;;7.43;4.07;;;7.40;99.90;;;;;;5050005;28;20327;-84
2021/03/21 03:37:37;;;;;;;12.87;3.77;;;7.40;99.90;;;;;;5049515;28;20186;-84
2021/03/21 03:40:06;;;;;;;9.33;3.30;;;7.40;99.90;;;;;;5050198;28;20205;-84
2021/03/21 03:42:46;;;;;;;10.07;2.90;;;7.40;99.90;;;;;;5051238;28;20273;-84
2021/03/21 03:45:22;;;;;;;5.80;2.97;;;7.40;99.90;;;;;;5049241;28;20210;-84
2021/03/21 03:48:01;;;;;;;10.87;2.43;;;7.40;99.90;;;;;;5049942;28;20209;-85
2021/03/21 03:50:47;;;;;;;10.53;2.50;;;7.40;99.90;;;;;;5054217;28;20278;-81
2021/03/21 03:53:29;;;;;;;7.70;3.13;;;7.50;99.90;;;;;;5068830;28;20212;-84
2021/03/21 03:56:00;;;;;;;5.83;2.10;;;7.40;99.90;;;;;;5058528;28;20289;-81
2021/03/21 03:58:32;;;;;;;8.70;2.37;;;7.40;99.90;;;;;;5048880;28;20182;-82
2021/03/21 04:01:05;;;;;;;9.87;2.73;;;7.50;99.90;;;;;;5048667;28;20182;-81
2021/03/21 04:03:41;;;;;;;11.43;3.17;;;7.40;99.90;;;;;;5048731;28;20228;-81
2021/03/21 04:06:13;;;;;;;12.00;2.70;;;7.40;99.90;;;;;;5047571;28;20559;-82
2021/03/21 04:08:46;;;;;;;8.17;2.60;;;7.40;99.90;;;;;;5047540;28;20206;-82
2021/03/21 04:11:19;;;;;;;12.87;2.90;;;7.50;99.90;;;;;;5048614;28;20297;-85
2021/03/21 04:13:51;;;;;;;6.83;2.47;;;7.50;99.90;;;;;;5049272;28;20245;-82
2021/03/21 04:16:23;;;;;;;13.40;2.60;;;7.50;99.90;;;;;;5050051;28;20183;-81
2021/03/21 04:18:58;;;;;;;11.20;2.57;;;7.50;99.90;;;;;;5049697;28;20194;-86
2021/03/21 04:21:30;;;;;;;10.37;2.50;;;7.60;99.90;;;;;;5049546;28;20193;-84
2021/03/21 04:24:03;;;;;;;6.93;2.20;;;7.60;99.90;;;;;;5049528;28;20279;-83
2021/03/21 04:26:34;;;;;;;13.37;3.17;;;7.60;99.90;;;;;;5049546;28;20206;-85
2021/03/21 04:29:05;;;;;;;10.50;2.40;;;7.60;99.90;;;;;;5050740;28;20186;-85
2021/03/21 04:31:35;;;;;;;11.57;2.63;;;7.60;99.90;;;;;;5050891;28;20602;-86
2021/03/21 04:34:05;;;;;;;14.27;2.60;;;7.70;99.90;;;;;;5050357;28;20236;-86
2021/03/21 04:36:37;;;;;;;12.73;2.60;;;7.60;99.90;;;;;;5048992;28;20228;-83
2021/03/21 04:39:08;;;;;;;8.87;2.30;;;7.60;99.90;;;;;;5048856;28;20202;-85
2021/03/21 04:41:40;;;;;;;17.03;3.73;;;7.60;99.90;;;;;;5047479;28;20202;-85
2021/03/21 04:44:10;;;;;;;9.77;2.27;;;7.60;99.90;;;;;;5047635;28;20202;-86
2021/03/21 04:46:51;;;;;;;16.87;3.13;;;7.60;99.90;;;;;;5049596;28;20234;-85
2021/03/21 04:49:19;;;;;;;10.67;3.30;;;7.60;99.90;;;;;;5067956;28;20217;-87
2021/03/21 04:51:47;;;;;;;13.60;2.73;;;7.60;99.90;;;;;;5069226;28;20197;-85
2021/03/21 04:54:20;;;;;;;12.87;2.70;;;7.60;99.90;;;;;;5062357;28;20198;-85
2021/03/21 04:56:52;;;;;;;18.00;4.43;;;7.50;99.90;;;;;;5049758;28;20193;-84
2021/03/21 04:59:24;;;;;;;13.43;3.67;;;7.50;99.90;;;;;;5049212;28;20194;-86
2021/03/21 05:02:00;;;;;;;10.80;3.20;;;7.50;99.90;;;;;;5049032;28;20410;-87
2021/03/21 05:04:30;;;;;;;15.73;2.90;;;7.50;99.90;;;;;;5048789;28;20285;-85
2021/03/21 05:07:02;;;;;;;13.10;3.10;;;7.60;99.90;;;;;;5049309;28;20542;-86
2021/03/21 05:09:34;;;;;;;15.33;3.33;;;7.50;99.90;;;;;;5049370;28;20198;-88
2021/03/21 05:12:06;;;;;;;15.60;3.70;;;7.50;99.90;;;;;;5063561;28;20209;-85
2021/03/21 05:14:37;;;;;;;15.10;3.80;;;7.50;99.90;;;;;;5068445;28;20232;-86
2021/03/21 05:17:15;;;;;;;13.80;3.63;;;7.50;99.90;;;;;;5067973;28;20197;-84
2021/03/21 05:19:52;;;;;;;15.70;3.47;;;7.50;99.90;;;;;;5057446;28;20224;-84
2021/03/21 05:22:28;;;;;;;10.57;3.07;;;7.50;99.90;;;;;;5048297;28;20669;-86
2021/03/21 05:24:59;;;;;;;14.13;4.17;;;7.50;99.90;;;;;;5048038;28;20201;-83
2021/03/21 05:27:30;;;;;;;16.60;4.37;;;7.50;99.90;;;;;;5065709;28;20216;-86
2021/03/21 05:30:02;;;;;;;9.37;2.87;;;7.50;99.90;;;;;;5064523;28;20262;-88
2021/03/21 05:32:29;;;;;;;12.40;2.63;;;7.40;99.90;;;;;;5066109;28;20197;-86
2021/03/21 05:34:57;;;;;;;12.43;2.87;;;7.40;99.90;;;;;;5067625;28;20217;-84
2021/03/21 05:37:43;;;;;;;13.50;2.70;;;7.40;99.90;;;;;;5068246;28;20231;-88
2021/03/21 05:40:49;;;;;;;11.87;2.63;;;7.40;99.90;;;;;;5068466;28;20193;-84
2021/03/21 05:43:48;;;;;;;15.07;3.10;;;7.50;99.90;;;;;;5059268;28;20217;-86
2021/03/21 05:46:42;;;;;;;12.80;3.40;;;7.50;99.90;;;;;;5048446;28;20392;-85
2021/03/21 05:49:43;;;;;;;14.73;2.97;;;7.50;99.90;;;;;;5048553;28;20217;-87
2021/03/21 05:52:43;;;;;;;13.03;2.80;;;7.50;99.90;;;;;;5047994;28;20267;-84
2021/03/21 05:55:35;;;;;;;17.47;3.23;;;7.50;99.90;;;;;;5033116;28;20201;-86
2021/03/21 05:58:36;;;;;;;14.67;3.40;;;7.50;99.90;;;;;;5068988;28;20212;-84
2021/03/21 06:01:28;;;;;;;12.27;3.10;;;7.50;99.90;;;;;;5071025;28;20216;-86
2021/03/21 06:04:19;;;;;;;12.70;2.83;;;7.50;99.90;;;;;;5063592;28;20665;-85
2021/03/21 06:07:15;;;;;;;16.27;3.73;;;7.50;99.90;;;;;;5052878;28;20905;-87
2021/03/21 06:09:57;;;;;;;12.40;2.93;;;7.50;99.90;;;;;;5053568;28;20213;-86
2021/03/21 06:12:40;;;;;;;13.67;2.43;;;7.40;99.90;;;;;;5052363;28;20259;-85
2021/03/21 06:15:37;;;;;;;19.23;3.37;;;7.50;99.90;;;;;;5052847;28;20205;-86
2021/03/21 06:18:20;;;;;;;14.53;3.60;;;7.60;99.90;;;;;;5053490;28;20183;-87
2021/03/21 06:21:06;;;;;;;16.93;2.87;;;7.60;99.90;;;;;;5052676;28;20205;-81
2021/03/21 06:23:57;;;;;;;12.07;3.10;;;7.60;99.90;;;;;;5064173;28;20212;-86
2021/03/21 06:26:33;;;;;;;15.47;2.43;;;7.70;99.90;;;;;;5071592;28;20288;-82
2021/03/21 06:29:44;;;;;;;15.97;3.00;;;7.60;99.90;;;;;;5072566;28;20205;-84
2021/03/21 06:32:31;;;;;;;13.43;3.00;;;7.60;99.90;;;;;;5052568;28;20217;-86
2021/03/21 06:35:08;;;;;;;15.13;3.87;;;7.60;99.90;;;;;;5052882;28;20853;-87
2021/03/21 06:38:07;;;;;;;15.67;3.33;;;7.60;99.90;;;;;;5052008;28;20266;-90
2021/03/21 06:40:55;;;;;;;21.47;3.97;;;7.60;99.90;;;;;;5024705;28;20201;-88
2021/03/21 06:44:00;;;;;;;16.77;3.43;;;7.70;99.90;;;;;;5052001;28;20222;-87
2021/03/21 06:47:00;;;;;;;15.13;3.03;;;7.70;99.90;;;;;;5049870;28;20234;-83
2021/03/21 06:49:58;;;;;;;20.17;3.90;;;7.80;99.90;;;;;;5051459;28;20198;-86
2021/03/21 06:52:33;;;;;;;17.07;3.33;;;7.80;99.90;;;;;;5063499;28;20216;-84
2021/03/21 06:55:05;;;;;;;13.93;4.20;;;7.70;99.90;;;;;;5065145;28;20259;-89
2021/03/21 06:58:10;;;;;;;19.77;2.77;;;7.80;99.90;;;;;;5050870;28;20225;-84
2021/03/21 07:01:00;;;;;;;14.93;3.80;;;7.70;99.90;;;;;;5051376;28;20966;-86
2021/03/21 07:04:13;;;;;;;32.10;4.47;;;7.70;99.90;;;;;;5051711;28;20206;-81
2021/03/21 07:07:27;;;;;;;12.87;2.47;;;7.70;99.90;;;;;;5050172;28;20805;-82
2021/03/21 07:10:30;;;;;;;13.00;2.50;;;7.70;99.90;;;;;;4998462;28;20226;-90
2021/03/21 07:13:39;;;;;;;16.17;3.27;;;7.70;99.90;;;;;;5010048;28;20670;-88
2021/03/21 07:16:34;;;;;;;19.60;3.87;;;7.80;99.90;;;;;;5050124;28;20205;-89
2021/03/21 07:19:49;;;;;;;17.70;3.03;;;7.80;99.90;;;;;;5052282;28;20209;-91
2021/03/21 07:22:53;;;;;;;15.20;2.63;;;7.80;99.90;;;;;;4971389;28;20191;-90
2021/03/21 07:25:50;;;;;;;17.60;2.50;;;7.80;99.90;;;;;;5053550;28;20225;-86
2021/03/21 07:29:01;;;;;;;14.33;3.40;;;7.90;99.90;;;;;;5068328;28;20266;-83
2021/03/21 07:31:39;;;;;;;14.97;3.00;;;7.90;99.90;;;;;;5072537;28;20193;-92
2021/03/21 07:34:25;;;;;;;12.77;2.97;;;7.80;99.90;;;;;;5071546;28;20209;-86
2021/03/21 07:37:00;;;;;;;16.83;4.20;;;7.90;99.90;;;;;;5051777;28;20506;-88
2021/03/21 07:39:54;;;;;;;16.53;3.97;;;7.90;99.90;;;;;;5050683;28;20212;-88
2021/03/21 07:42:42;;;;;;;15.60;3.17;;;7.90;99.90;;;;;;5035694;28;20509;-82
2021/03/21 07:45:23;;;;;;;17.13;3.20;;;7.90;99.90;;;;;;5050195;28;20206;-91
2021/03/21 07:48:07;;;;;;;17.30;4.03;;;8.00;99.90;;;;;;5031909;28;20194;-94
2021/03/21 07:50:43;;;;;;;18.83;4.60;;;8.00;99.90;;;;;;5062986;28;20213;-87
2021/03/21 07:53:20;;;;;;;19.80;3.60;;;8.10;99.90;;;;;;5067548;28;20212;-90
2021/03/21 07:55:53;;;;;;;21.33;3.83;;;8.00;99.90;;;;;;5050668;28;20194;-89
2021/03/21 07:58:26;;;;;;;23.50;3.77;;;8.00;99.90;;;;;;5050017;28;20252;-89
2021/03/21 08:00:53;;;;;;;22.97;4.03;;;8.10;99.90;;;;;;5052442;28;20209;-82
2021/03/21 08:03:42;;;;;;;23.70;5.30;;;8.10;99.90;;;;;;5048774;28;20197;-86
2021/03/21 08:06:15;;;;;;;16.73;3.87;;;8.10;99.90;;;;;;5050792;28;20511;-88
2021/03/21 08:08:47;;;;;;;23.10;4.47;;;8.10;99.90;;;;;;5047827;28;20204;-83
2021/03/21 08:11:18;;;;;;;32.43;5.60;;;8.10;99.90;;;;;;5048025;28;20205;-90
2021/03/21 08:13:47;;;;;;;30.00;5.37;;;8.10;99.90;;;;;;5048553;28;20436;-86
2021/03/21 08:16:17;;;;;;;27.93;6.67;;;8.00;99.90;;;;;;5048277;28;20271;-82
2021/03/21 08:18:46;;;;;;;26.57;5.70;;;8.10;99.90;;;;;;5046922;28;20212;-89
2021/03/21 08:21:17;;;;;;;22.67;4.47;;;8.00;99.90;;;;;;5047331;28;20197;-83
2021/03/21 08:23:46;;;;;;;18.03;4.23;;;8.00;99.90;;;;;;5048041;28;20213;-84
2021/03/21 08:26:15;;;;;;;20.60;4.50;;;8.00;99.90;;;;;;5046955;28;20225;-83
2021/03/21 08:29:08;;;;;;;18.47;4.33;;;8.10;99.90;;;;;;5047649;28;20209;-87
2021/03/21 08:31:38;;;;;;;18.67;4.37;;;8.10;99.90;;;;;;5047469;28;20209;-82
2021/03/21 08:34:44;;;;;;;26.50;4.73;;;8.10;99.90;;;;;;5047506;28;20194;-93
2021/03/21 08:37:27;;;;;;;20.67;4.13;;;8.20;99.90;;;;;;5051501;28;20213;-88
2021/03/21 08:39:57;;;;;;;23.60;4.97;;;8.10;99.90;;;;;;5051551;28;20300;-86
2021/03/21 08:42:36;;;;;;;20.57;4.13;;;8.10;99.90;;;;;;5051844;28;20208;-89
2021/03/21 08:45:23;;;;;;;23.60;4.80;;;8.10;99.90;;;;;;5051498;28;20257;-89
2021/03/21 08:48:02;;;;;;;22.33;6.27;;;8.10;99.90;;;;;;5050514;28;20194;-89
2021/03/21 08:50:34;;;;;;;25.47;5.07;;;8.10;99.90;;;;;;5050076;28;20204;-84
2021/03/21 08:53:01;;;;;;;19.67;4.23;;;8.10;99.90;;;;;;5048137;28;20245;-83
2021/03/21 08:55:29;;;;;;;26.87;4.87;;;8.20;99.90;;;;;;5044864;28;20194;-82
2021/03/21 08:57:56;;;;;;;22.37;5.40;;;8.20;99.90;;;;;;5047116;28;20189;-86
2021/03/21 09:00:32;;;;;;;23.57;4.30;;;8.10;99.90;;;;;;5048900;28;20287;-86
2021/03/21 09:02:59;;;;;;;25.37;5.27;;;8.20;99.90;;;;;;5048117;28;20205;-86
2021/03/21 09:05:26;;;;;;;21.57;4.20;;;8.10;99.90;;;;;;5046543;28;20220;-85
2021/03/21 09:08:06;;;;;;;17.63;4.50;;;8.20;99.90;;;;;;5048708;28;20751;-80
2021/03/21 09:10:35;;;;;;;22.87;4.87;;;8.20;99.90;;;;;;5049463;28;20194;-83
2021/03/21 09:13:21;;;;;;;26.77;5.07;;;8.10;99.90;;;;;;5064086;28;20240;-83
2021/03/21 09:16:01;;;;;;;21.37;5.50;;;8.20;99.90;;;;;;5068358;28;20197;-86
2021/03/21 09:18:29;;;;;;;23.37;4.47;;;8.20;99.90;;;;;;5068489;28;20190;-82
2021/03/21 09:21:14;;;;;;;20.90;5.97;;;8.30;99.90;;;;;;5050872;28;20287;-83
2021/03/21 09:23:44;;;;;;;27.17;5.60;;;8.20;99.90;;;;;;5049599;28;20483;-85
2021/03/21 09:26:30;;;;;;;23.73;5.03;;;8.20;99.90;;;;;;5047646;28;20883;-91
2021/03/21 09:29:00;;;;;;;20.93;5.40;;;8.40;99.90;;;;;;5048841;28;20202;-85
2021/03/21 09:31:28;;;;;;;23.67;4.83;;;8.50;99.90;;;;;;5048687;28;20931;-90
2021/03/21 09:34:00;;;;;;;30.70;4.90;;;8.40;99.90;;;;;;5048862;28;20201;-86
2021/03/21 09:36:31;;;;;;;25.80;5.33;;;8.30;99.90;;;;;;5047868;28;20198;-86
2021/03/21 09:39:03;;;;;;;19.60;5.13;;;8.30;99.90;;;;;;5053484;28;20235;-87
2021/03/21 09:41:29;;;;;;;30.17;7.30;;;8.30;99.90;;;;;;5068546;28;20208;-82
2021/03/21 09:44:01;;;;;;;23.97;5.07;;;8.40;99.90;;;;;;5053385;28;20205;-85
2021/03/21 09:46:41;;;;;;;23.50;5.63;;;8.40;99.90;;;;;;5048589;28;20237;-90
2021/03/21 09:49:15;;;;;;;24.93;5.57;;;8.50;99.90;;;;;;5046873;28;20201;-92
2021/03/21 09:51:50;;;;;;;25.77;5.10;;;8.60;99.90;;;;;;5063998;28;20969;-90
2021/03/21 09:54:36;;;;;;;28.90;5.30;;;8.60;99.90;;;;;;5055977;28;20635;-90
2021/03/21 09:57:22;;;;;;;22.10;5.03;;;8.80;99.90;;;;;;5049288;28;20263;-88
2021/03/21 09:59:56;;;;;;;23.93;5.20;;;8.80;99.90;;;;;;5051289;28;20861;-90
2021/03/21 10:02:33;;;;;;;24.17;4.57;;;8.90;99.90;;;;;;5062003;28;20501;-90
2021/03/21 10:05:05;;;;;;;24.23;5.97;;;8.90;99.90;;;;;;5071049;28;20246;-92
2021/03/21 10:07:42;;;;;;;36.30;6.13;;;8.70;99.90;;;;;;5065811;28;20248;-92
2021/03/21 10:10:19;;;;;;;26.70;5.20;;;8.80;99.90;;;;;;5064292;23;20236;-86
2021/03/21 10:12:46;;;;;;;19.53;5.10;;;8.70;99.90;;;;;;5068803;28;20193;-90
2021/03/21 10:15:16;;;;;;;22.83;4.73;;;8.70;99.90;;;;;;5067264;28;20236;-82
2021/03/21 10:17:51;;;;;;;21.63;4.87;;;8.60;99.90;;;;;;5068559;28;20209;-82
2021/03/21 10:20:20;;;;;;;19.43;5.30;;;8.80;99.90;;;;;;5068221;28;20212;-89
2021/03/21 10:22:54;;;;;;;22.37;5.63;;;8.80;99.90;;;;;;5067504;28;20926;-83
2021/03/21 10:25:49;;;;;;;28.83;5.57;;;9.00;99.90;;;;;;5068059;28;20185;-87
2021/03/21 10:28:42;;;;;;;25.10;4.93;;;9.10;99.90;;;;;;5058437;28;20209;-88
2021/03/21 10:31:40;;;;;;;32.80;6.43;;;8.90;99.90;;;;;;5067402;28;20266;-85
2021/03/21 10:34:46;;;;;;;23.07;5.37;;;9.00;99.90;;;;;;5060512;28;20209;-87
2021/03/21 10:37:50;;;;;;;23.40;5.73;;;9.00;99.90;;;;;;5046856;28;20190;-80
2021/03/21 10:40:39;;;;;;;25.63;5.63;;;9.10;99.90;;;;;;5046482;28;20224;-86
2021/03/21 10:43:10;;;;;;;20.43;5.10;;;9.20;99.90;;;;;;5053841;28;20316;-89
2021/03/21 10:45:48;;;;;;;22.97;4.77;;;9.20;99.90;;;;;;5069591;28;20232;-83
2021/03/21 10:48:49;;;;;;;19.77;4.23;;;9.20;99.90;;;;;;5070650;28;20205;-82
2021/03/21 10:51:16;;;;;;;17.37;4.00;;;9.20;99.90;;;;;;5065560;28;20605;-84
2021/03/21 10:54:14;;;;;;;22.67;4.77;;;9.30;99.90;;;;;;5070130;28;20204;-85
2021/03/21 10:56:40;;;;;;;23.17;5.53;;;9.30;99.90;;;;;;5070477;28;20282;-84
2021/03/21 10:59:15;;;;;;;24.90;4.87;;;9.30;99.90;;;;;;5070893;28;20220;-87
2021/03/21 11:01:43;;;;;;;19.93;4.73;;;9.30;99.90;;;;;;5070024;28;20209;-90
2021/03/21 11:04:32;;;;;;;25.70;6.70;;;9.30;99.90;;;;;;5070951;28;20494;-82
2021/03/21 11:07:18;;;;;;;16.20;4.80;;;9.30;99.90;;;;;;5052045;28;20226;-86
2021/03/21 11:09:57;;;;;;;17.37;4.63;;;9.10;99.90;;;;;;5051358;28;20703;-87
2021/03/21 11:12:33;;;;;;;18.17;4.53;;;9.10;99.90;;;;;;5050756;28;20213;-82
2021/03/21 11:18:04;;;;;;;22.57;5.63;;;9.00;99.90;;;;;;5103584;27;20969;-95
2021/03/21 11:20:33;;;;;;;17.43;4.63;;;8.90;99.90;;;;;;5083590;28;20212;-90
2021/03/21 11:23:07;;;;;;;27.97;5.73;;;9.00;99.90;;;;;;5077133;28;20479;-91
2021/03/21 11:25:37;;;;;;;25.30;4.70;;;9.10;99.90;;;;;;5063541;28;20582;-80
2021/03/21 11:28:12;;;;;;;20.90;4.63;;;9.10;99.90;;;;;;5062573;28;20209;-78
2021/03/21 11:30:50;;;;;;;18.00;5.10;;;9.10;99.90;;;;;;5064643;28;20189;-78
2021/03/21 11:33:20;;;;;;;22.60;5.10;;;9.10;99.90;;;;;;5083666;28;20196;-82
2021/03/21 11:35:47;;;;;;;19.67;4.57;;;9.10;99.90;;;;;;5071507;28;20229;-84
2021/03/21 11:38:29;;;;;;;19.10;4.97;;;9.10;99.90;;;;;;5062005;28;20288;-91
2021/03/21 11:40:56;;;;;;;27.57;5.13;;;9.20;99.90;;;;;;5062287;28;20558;-79
2021/03/21 11:43:27;;;;;;;21.67;4.20;;;9.30;99.90;;;;;;5060292;28;20209;-80
2021/03/21 11:45:54;;;;;;;25.80;4.70;;;9.20;99.90;;;;;;5061123;28;20937;-81
2021/03/21 11:48:32;;;;;;;20.90;4.60;;;9.30;99.90;;;;;;5061198;28;20855;-93
2021/03/21 11:51:00;;;;;;;20.10;4.50;;;9.30;99.90;;;;;;5071555;28;20212;-81
2021/03/21 11:53:29;;;;;;;19.57;4.30;;;9.30;99.90;;;;;;5084767;28;20193;-84
2021/03/21 11:56:02;;;;;;;32.57;5.80;;;9.30;99.90;;;;;;5070964;28;20222;-90
2021/03/21 11:58:33;;;;;;;19.40;4.13;;;9.30;99.90;;;;;;5065970;28;20859;-83
2021/03/21 12:01:01;;;;;;;24.53;5.33;;;9.30;99.90;;;;;;5064981;28;20208;-86
2021/03/21 12:03:41;;;;;;;20.43;5.80;;;9.20;99.90;;;;;;5064340;28;20197;-82
2021/03/21 12:06:23;;;;;;;22.20;4.77;;;9.20;99.90;;;;;;5068144;28;20233;-92
2021/03/21 12:08:50;;;;;;;21.93;5.33;;;9.10;99.90;;;;;;5065217;28;20262;-83
2021/03/21 12:11:27;;;;;;;27.57;4.70;;;9.10;99.90;;;;;;5065209;28;20208;-86
2021/03/21 12:13:55;;;;;;;20.93;4.23;;;9.10;99.90;;;;;;5065792;28;20205;-86
2021/03/21 12:16:45;;;;;;;24.07;4.93;;;9.10;99.90;;;;;;5065850;28;20241;-90
2021/03/21 12:19:27;;;;;;;18.03;4.73;;;9.10;99.90;;;;;;5049757;28;20209;-89
2021/03/21 12:21:56;;;;;;;24.57;5.57;;;9.10;99.90;;;;;;5064110;28;20247;-82
2021/03/21 12:24:24;;;;;;;16.33;5.43;;;9.00;99.90;;;;;;5048463;28;20225;-88
2021/03/21 12:26:56;;;;;;;19.73;4.30;;;9.00;99.90;;;;;;5042624;28;20202;-84
2021/03/21 12:29:42;;;;;;;24.63;4.67;;;8.90;99.90;;;;;;5029224;28;20186;-89
2021/03/21 12:32:29;;;;;;;23.03;4.87;;;9.00;99.90;;;;;;5044469;28;20214;-87
2021/03/21 12:34:57;;;;;;;16.37;4.23;;;8.90;99.90;;;;;;5054361;28;20490;-90
2021/03/21 12:37:26;;;;;;;23.73;5.27;;;9.00;99.90;;;;;;5051934;28;20218;-89
2021/03/21 12:40:08;;;;;;;23.10;5.50;;;9.00;99.90;;;;;;5053122;28;20240;-87
2021/03/21 12:42:37;;;;;;;24.03;6.73;;;9.00;99.90;;;;;;5051812;28;20313;-91
2021/03/21 12:45:09;;;;;;;26.87;5.00;;;9.00;99.90;;;;;;5052923;28;20202;-88
2021/03/21 12:47:38;;;;;;;23.03;5.27;;;8.90;99.90;;;;;;5052431;28;20224;-88
2021/03/21 12:50:30;;;;;;;20.57;4.67;;;9.00;99.90;;;;;;5051831;28;20218;-88
2021/03/21 12:52:56;;;;;;;21.70;5.70;;;9.00;99.90;;;;;;5052526;28;20186;-90
2021/03/21 12:55:23;;;;;;;24.30;6.27;;;9.00;99.90;;;;;;5052493;28;20201;-90
2021/03/21 12:57:51;;;;;;;25.43;7.13;;;9.00;99.90;;;;;;5038318;28;20290;-84
2021/03/21 13:00:22;;;;;;;26.13;7.43;;;9.00;99.90;;;;;;5047563;28;20214;-83
2021/03/21 13:02:52;;;;;;;22.10;5.97;;;9.10;99.90;;;;;;5051011;28;20202;-89
2021/03/21 13:05:22;;;;;;;24.40;6.10;;;9.10;99.90;;;;;;5050983;28;21302;-88
2021/03/21 13:07:48;;;;;;;25.73;6.37;;;9.10;99.90;;;;;;5051372;28;20197;-91
2021/03/21 13:10:15;;;;;;;29.67;6.77;;;9.10;99.90;;;;;;5050775;28;20868;-82
2021/03/21 13:12:41;;;;;;;21.13;5.07;;;9.10;99.90;;;;;;5051853;28;20275;-89
2021/03/21 13:15:09;;;;;;;20.17;5.33;;;9.20;99.90;;;;;;5051800;28;20198;-90
2021/03/21 13:17:37;;;;;;;20.30;5.27;;;9.20;99.90;;;;;;5047118;28;20241;-90
2021/03/21 13:20:04;;;;;;;19.33;5.07;;;9.30;99.90;;;;;;5046218;28;20202;-88
2021/03/21 13:22:31;;;;;;;24.37;5.57;;;9.40;99.90;;;;;;5039803;28;20203;-89
2021/03/21 13:24:58;;;;;;;21.90;4.90;;;9.40;99.90;;;;;;5026352;28;20609;-86
2021/03/21 13:27:24;;;;;;;22.73;4.30;;;9.30;99.90;;;;;;5046410;28;20216;-92
2021/03/21 13:29:51;;;;;;;17.83;5.03;;;9.20;99.90;;;;;;5051438;28;20308;-88
2021/03/21 13:32:18;;;;;;;42.57;7.03;;;9.00;99.90;;;;;;5033925;28;20293;-90
2021/03/21 13:34:44;;;;;;;24.23;5.23;;;9.00;99.90;;;;;;5031722;28;20265;-90
2021/03/21 13:37:11;;;;;;;21.70;4.03;;;9.00;99.90;;;;;;5049614;28;20283;-88